createdAt,value
2018-09-05T00:00:11.237Z,96.91
2018-09-05T00:01:11.209Z,97.31
2018-09-05T00:02:11.199Z,96.91
2018-09-05T00:03:11.202Z,96.30
2018-09-05T00:04:11.185Z,97.61
2018-09-05T00:05:11.187Z,97.51
2018-09-05T00:06:11.157Z,96.55
2018-09-05T00:07:11.143Z,97.86
2018-09-05T00:08:11.131Z,97.66
2018-09-05T00:09:11.121Z,97.86
2018-09-05T00:10:11.131Z,97.56
2018-09-05T00:11:11.103Z,97.56
2018-09-05T00:12:11.094Z,98.27
2018-09-05T00:13:11.077Z,97.66
2018-09-05T00:14:11.101Z,97.36
2018-09-05T00:15:11.090Z,97.45
2018-09-05T00:16:11.052Z,97.96
2018-09-05T00:17:11.050Z,97.96
2018-09-05T00:18:11.032Z,98.07
2018-09-05T00:19:11.014Z,98.51
2018-09-05T00:20:11.018Z,97.86
2018-09-05T00:21:10.990Z,98.27
2018-09-05T00:22:10.984Z,98.16
2018-09-05T00:23:10.974Z,98.01
2018-09-05T00:24:10.965Z,98.36
2018-09-05T00:25:10.971Z,97.80
2018-09-05T00:26:10.942Z,97.66
2018-09-05T00:27:10.932Z,98.07
2018-09-05T00:28:10.917Z,98.07
2018-09-05T00:29:10.910Z,97.76
2018-09-05T00:30:10.923Z,97.36
2018-09-05T00:31:10.884Z,97.86
2018-09-05T00:32:10.875Z,97.96
2018-09-05T00:33:10.861Z,97.96
2018-09-05T00:34:10.853Z,97.11
2018-09-05T00:35:10.862Z,97.05
2018-09-05T00:36:10.838Z,96.30
2018-09-05T00:37:10.831Z,96.50
2018-09-05T00:38:10.812Z,95.79
2018-09-05T00:39:10.800Z,95.70
2018-09-05T00:40:10.810Z,95.35
2018-09-05T00:41:10.777Z,95.55
2018-09-05T00:42:10.767Z,95.45
2018-09-05T00:43:10.759Z,94.84
2018-09-05T00:44:10.750Z,94.54
2018-09-05T00:45:10.752Z,95.04
2018-09-05T00:46:10.725Z,94.84
2018-09-05T00:47:10.717Z,95.45
2018-09-05T00:48:10.709Z,94.34
2018-09-05T00:49:10.704Z,94.13
2018-09-05T00:50:10.706Z,94.44
2018-09-05T00:51:10.674Z,94.74
2018-09-05T00:52:10.658Z,95.35
2018-09-05T00:53:10.650Z,95.35
2018-09-05T00:54:10.641Z,95.85
2018-09-05T00:55:10.653Z,95.65
2018-09-05T00:56:10.625Z,95.65
2018-09-05T00:57:10.612Z,95.09
2018-09-05T00:58:10.598Z,95.90
2018-09-05T00:59:10.585Z,95.85
2018-09-05T01:00:10.592Z,95.90
2018-09-05T01:01:10.577Z,95.59
2018-09-05T01:02:10.554Z,95.90
2018-09-05T01:03:10.542Z,95.49
2018-09-05T01:04:10.528Z,95.90
2018-09-05T01:05:10.536Z,95.59
2018-09-05T01:06:10.510Z,95.59
2018-09-05T01:07:10.503Z,96.00
2018-09-05T01:08:10.498Z,96.30
2018-09-05T01:09:10.482Z,96.40
2018-09-05T01:10:10.487Z,96.40
2018-09-05T01:11:10.458Z,95.79
2018-09-05T01:12:10.448Z,95.94
2018-09-05T01:13:10.433Z,96.14
2018-09-05T01:14:10.424Z,95.54
2018-09-05T01:15:10.432Z,95.54
2018-09-05T01:16:10.407Z,95.74
2018-09-05T01:17:10.390Z,96.34
2018-09-05T01:18:10.385Z,96.95
2018-09-05T01:19:10.373Z,96.25
2018-09-05T01:20:10.383Z,95.64
2018-09-05T01:21:10.353Z,95.94
2018-09-05T01:22:10.341Z,95.74
2018-09-05T01:23:10.328Z,95.84
2018-09-05T01:24:10.315Z,96.34
2018-09-05T01:25:10.321Z,96.34
2018-09-05T01:26:10.299Z,96.25
2018-09-05T01:27:10.287Z,96.45
2018-09-05T01:28:10.280Z,96.85
2018-09-05T01:29:10.268Z,96.55
2018-09-05T01:30:10.272Z,96.65
2018-09-05T01:31:10.241Z,96.75
2018-09-05T01:32:10.228Z,96.25
2018-09-05T01:33:10.224Z,96.85
2018-09-05T01:34:10.217Z,96.55
2018-09-05T01:35:10.215Z,96.25
2018-09-05T01:36:10.185Z,96.80
2018-09-05T01:37:10.183Z,97.00
2018-09-05T01:38:10.179Z,97.30
2018-09-05T01:39:10.157Z,96.39
2018-09-05T01:40:10.167Z,96.89
2018-09-05T01:41:10.144Z,96.80
2018-09-05T01:42:10.125Z,96.80
2018-09-05T01:43:10.113Z,96.69
2018-09-05T01:44:10.100Z,97.00
2018-09-05T01:45:10.107Z,96.59
2018-09-05T01:46:10.080Z,97.00
2018-09-05T01:47:10.072Z,96.19
2018-09-05T01:48:10.062Z,96.94
2018-09-05T01:49:10.045Z,97.10
2018-09-05T01:50:10.054Z,96.94
2018-09-05T01:51:10.030Z,97.45
2018-09-05T01:52:10.020Z,97.25
2018-09-05T01:53:10.009Z,97.96
2018-09-05T01:54:09.999Z,98.66
2018-09-05T01:55:10.001Z,97.85
2018-09-05T01:56:09.971Z,97.65
2018-09-05T01:57:09.959Z,97.80
2018-09-05T01:58:09.952Z,98.00
2018-09-05T01:59:09.944Z,98.81
2018-09-05T02:00:09.950Z,98.20
2018-09-05T02:01:09.923Z,98.30
2018-09-05T02:02:09.911Z,98.50
2018-09-05T02:03:09.901Z,98.75
2018-09-05T02:04:09.883Z,98.61
2018-09-05T02:05:09.897Z,98.61
2018-09-05T02:06:09.866Z,99.16
2018-09-05T02:07:09.855Z,98.75
2018-09-05T02:08:09.840Z,98.91
2018-09-05T02:09:09.828Z,99.05
2018-09-05T02:10:09.840Z,98.81
2018-09-05T02:11:09.811Z,98.81
2018-09-05T02:12:09.806Z,98.85
2018-09-05T02:13:09.791Z,98.91
2018-09-05T02:14:09.781Z,99.32
2018-09-05T02:15:09.802Z,99.77
2018-09-05T02:16:09.752Z,99.52
2018-09-05T02:17:09.742Z,99.56
2018-09-05T02:18:09.733Z,99.36
2018-09-05T02:19:09.724Z,99.26
2018-09-05T02:20:09.733Z,99.36
2018-09-05T02:21:09.698Z,99.16
2018-09-05T02:22:09.689Z,99.36
2018-09-05T02:23:09.679Z,99.77
2018-09-05T02:24:09.671Z,99.46
2018-09-05T02:25:09.681Z,99.99
2018-09-05T02:26:09.649Z,99.99
2018-09-05T02:27:09.633Z,99.99
2018-09-05T02:28:09.626Z,99.87
2018-09-05T02:29:09.610Z,99.99
2018-09-05T02:30:09.621Z,99.99
2018-09-05T02:31:09.593Z,99.99
2018-09-05T02:32:09.590Z,99.99
2018-09-05T02:33:09.573Z,99.99
2018-09-05T02:34:09.564Z,99.99
2018-09-05T02:35:09.570Z,99.99
2018-09-05T02:36:09.534Z,99.99
2018-09-05T02:37:09.531Z,99.99
2018-09-05T02:38:09.517Z,99.99
2018-09-05T02:39:09.505Z,99.99
2018-09-05T02:40:09.509Z,99.99
2018-09-05T02:41:09.480Z,99.99
2018-09-05T02:42:09.470Z,99.99
2018-09-05T02:43:09.463Z,99.99
2018-09-05T02:44:09.460Z,99.99
2018-09-05T02:45:09.463Z,99.87
2018-09-05T02:46:09.429Z,99.97
2018-09-05T02:47:09.416Z,99.61
2018-09-05T02:48:09.404Z,99.71
2018-09-05T02:49:09.394Z,99.87
2018-09-05T02:50:09.402Z,99.99
2018-09-05T02:51:09.375Z,99.99
2018-09-05T02:52:09.369Z,99.99
2018-09-05T02:53:09.349Z,99.99
2018-09-05T02:54:09.340Z,99.99
2018-09-05T02:55:09.354Z,99.99
2018-09-05T02:56:09.324Z,99.99
2018-09-05T02:57:09.316Z,99.99
2018-09-05T02:58:09.301Z,99.99
2018-09-05T02:59:09.286Z,99.99
2018-09-05T03:00:09.291Z,99.99
2018-09-05T03:01:09.262Z,99.99
2018-09-05T03:02:09.262Z,99.99
2018-09-05T03:03:09.245Z,99.99
2018-09-05T03:04:09.237Z,99.99
2018-09-05T03:05:09.243Z,99.99
2018-09-05T03:06:09.213Z,99.99
2018-09-05T03:07:09.200Z,99.99
2018-09-05T03:08:09.186Z,99.99
2018-09-05T03:09:09.184Z,99.99
2018-09-05T03:10:09.186Z,99.99
2018-09-05T03:11:09.156Z,99.81
2018-09-05T03:12:09.150Z,99.81
2018-09-05T03:13:09.132Z,99.99
2018-09-05T03:14:09.124Z,99.99
2018-09-05T03:15:09.133Z,99.99
2018-09-05T03:16:09.106Z,99.99
2018-09-05T03:17:09.095Z,99.99
2018-09-05T03:18:09.082Z,99.99
2018-09-05T03:19:09.068Z,99.99
2018-09-05T03:20:09.075Z,99.99
2018-09-05T03:21:09.045Z,99.99
2018-09-05T03:22:09.041Z,99.99
2018-09-05T03:23:09.032Z,99.99
2018-09-05T03:24:09.024Z,99.99
2018-09-05T03:25:09.030Z,99.99
2018-09-05T03:26:08.992Z,99.66
2018-09-05T03:27:08.984Z,99.66
2018-09-05T03:28:08.975Z,99.86
2018-09-05T03:29:08.964Z,99.99
2018-09-05T03:30:08.955Z,99.86
2018-09-05T03:31:08.984Z,99.76
2018-09-05T03:32:08.976Z,99.86
2018-09-05T03:33:08.943Z,99.99
2018-09-05T03:34:08.906Z,99.99
2018-09-05T03:35:08.900Z,99.99
2018-09-05T03:36:08.889Z,99.99
2018-09-05T03:37:08.899Z,99.99
2018-09-05T03:38:08.864Z,99.99
2018-09-05T03:39:08.852Z,99.99
2018-09-05T03:40:08.838Z,99.99
2018-09-05T03:41:08.834Z,99.99
2018-09-05T03:42:08.840Z,99.99
2018-09-05T03:43:08.808Z,99.99
2018-09-05T03:44:08.796Z,99.99
2018-09-05T03:45:08.784Z,99.99
2018-09-05T03:46:08.774Z,99.99
2018-09-05T03:47:08.785Z,99.99
2018-09-05T03:48:08.759Z,99.99
2018-09-05T03:49:08.751Z,99.99
2018-09-05T03:50:08.734Z,99.99
2018-09-05T03:51:08.725Z,99.99
2018-09-05T03:52:08.726Z,99.99
2018-09-05T03:53:08.697Z,99.99
2018-09-05T03:54:08.689Z,99.99
2018-09-05T03:55:08.680Z,99.99
2018-09-05T03:56:08.672Z,99.99
2018-09-05T03:57:08.675Z,99.99
2018-09-05T03:58:08.644Z,99.99
2018-09-05T03:59:08.636Z,99.99
2018-09-05T04:00:08.628Z,99.99
2018-09-05T04:01:08.629Z,99.99
2018-09-05T04:02:08.631Z,99.99
2018-09-05T04:03:08.592Z,99.99
2018-09-05T04:04:08.578Z,99.99
2018-09-05T04:05:08.583Z,99.99
2018-09-05T04:06:08.562Z,99.99
2018-09-05T04:07:08.575Z,99.99
2018-09-05T04:08:08.544Z,99.99
2018-09-05T04:09:08.531Z,99.99
2018-09-05T04:10:08.519Z,99.99
2018-09-05T04:11:08.508Z,99.99
2018-09-05T04:12:08.594Z,99.99
2018-09-05T04:13:08.505Z,99.99
2018-09-05T04:14:08.478Z,99.99
2018-09-05T04:15:08.461Z,99.99
2018-09-05T04:16:08.448Z,99.99
2018-09-05T04:17:08.437Z,99.99
2018-09-05T04:18:08.447Z,99.99
2018-09-05T04:19:08.421Z,99.99
2018-09-05T04:20:08.415Z,99.99
2018-09-05T04:21:08.399Z,99.99
2018-09-05T04:22:08.456Z,99.99
2018-09-05T04:23:08.391Z,99.99
2018-09-05T04:24:08.366Z,99.99
2018-09-05T04:25:08.361Z,99.99
2018-09-05T04:26:08.341Z,99.99
2018-09-05T04:27:08.336Z,99.99
2018-09-05T04:28:08.342Z,99.99
2018-09-05T04:29:08.313Z,99.99
2018-09-05T04:30:08.298Z,99.99
2018-09-05T04:31:08.296Z,99.99
2018-09-05T04:32:08.281Z,99.99
2018-09-05T04:33:08.289Z,99.99
2018-09-05T04:34:08.264Z,99.99
2018-09-05T04:35:08.244Z,99.99
2018-09-05T04:36:08.235Z,99.99
2018-09-05T04:37:08.224Z,99.99
2018-09-05T04:38:08.230Z,99.99
2018-09-05T04:39:08.210Z,99.99
2018-09-05T04:40:08.194Z,99.99
2018-09-05T04:41:08.183Z,99.99
2018-09-05T04:42:08.175Z,99.99
2018-09-05T04:43:08.191Z,99.99
2018-09-05T04:44:08.149Z,99.99
2018-09-05T04:45:08.204Z,99.99
2018-09-05T04:46:08.132Z,99.99
2018-09-05T04:47:08.121Z,99.99
2018-09-05T04:48:08.127Z,99.99
2018-09-05T04:49:08.119Z,99.99
2018-09-05T04:50:08.083Z,99.99
2018-09-05T04:51:08.079Z,99.99
2018-09-05T04:52:08.065Z,99.99
2018-09-05T04:53:08.074Z,99.99
2018-09-05T04:54:08.051Z,99.99
2018-09-05T04:55:08.029Z,99.99
2018-09-05T04:56:08.021Z,99.99
2018-09-05T04:57:08.009Z,99.99
2018-09-05T04:58:08.019Z,99.99
2018-09-05T04:59:07.992Z,99.99
2018-09-05T05:00:07.979Z,99.99
2018-09-05T05:01:07.968Z,99.99
2018-09-05T05:02:07.953Z,99.99
2018-09-05T05:03:07.970Z,99.99
2018-09-05T05:04:07.946Z,99.99
2018-09-05T05:05:07.926Z,99.99
2018-09-05T05:06:07.917Z,99.99
2018-09-05T05:07:07.899Z,99.99
2018-09-05T05:08:07.908Z,99.99
2018-09-05T05:09:07.880Z,99.99
2018-09-05T05:10:07.877Z,99.99
2018-09-05T05:11:07.865Z,99.99
2018-09-05T05:12:07.851Z,99.99
2018-09-05T05:13:07.863Z,99.99
2018-09-05T05:14:07.833Z,99.99
2018-09-05T05:15:07.816Z,99.99
2018-09-05T05:16:07.808Z,99.99
2018-09-05T05:17:07.796Z,99.99
2018-09-05T05:18:07.812Z,99.99
2018-09-05T05:19:07.772Z,99.99
2018-09-05T05:20:07.766Z,99.99
2018-09-05T05:21:07.751Z,99.99
2018-09-05T05:22:07.744Z,99.99
2018-09-05T05:23:07.760Z,99.99
2018-09-05T05:24:07.738Z,99.99
2018-09-05T05:25:07.710Z,99.99
2018-09-05T05:26:07.730Z,99.99
2018-09-05T05:27:07.685Z,99.99
2018-09-05T05:28:07.683Z,99.99
2018-09-05T05:29:07.683Z,99.99
2018-09-05T05:30:07.651Z,99.99
2018-09-05T05:31:07.653Z,99.99
2018-09-05T05:32:07.638Z,99.99
2018-09-05T05:33:07.622Z,99.99
2018-09-05T05:34:07.634Z,99.99
2018-09-05T05:35:07.629Z,99.99
2018-09-05T05:36:07.590Z,99.99
2018-09-05T05:37:07.581Z,99.99
2018-09-05T05:38:07.570Z,99.99
2018-09-05T05:39:07.571Z,99.99
2018-09-05T05:40:07.605Z,99.99
2018-09-05T05:41:07.535Z,99.99
2018-09-05T05:42:07.522Z,99.99
2018-09-05T05:43:07.520Z,99.99
2018-09-05T05:44:07.981Z,99.99
2018-09-05T05:45:07.494Z,99.99
2018-09-05T05:46:07.493Z,99.99
2018-09-05T05:47:07.503Z,99.99
2018-09-05T05:48:07.461Z,99.99
2018-09-05T05:49:07.469Z,99.99
2018-09-05T05:50:07.444Z,99.99
2018-09-05T05:51:07.424Z,99.99
2018-09-05T05:52:07.414Z,99.99
2018-09-05T05:53:07.405Z,99.99
2018-09-05T05:54:07.409Z,99.99
2018-09-05T05:55:07.474Z,99.99
2018-09-05T05:56:07.374Z,99.99
2018-09-05T05:57:07.362Z,99.99
2018-09-05T05:58:07.355Z,99.99
2018-09-05T05:59:07.360Z,99.99
2018-09-05T06:00:07.331Z,99.99
2018-09-05T06:01:07.363Z,99.99
2018-09-05T06:02:07.307Z,99.99
2018-09-05T06:03:07.302Z,99.99
2018-09-05T06:04:07.313Z,99.99
2018-09-05T06:05:07.280Z,99.99
2018-09-05T06:06:07.356Z,99.99
2018-09-05T06:07:07.290Z,99.99
2018-09-05T06:08:07.278Z,99.99
2018-09-05T06:09:07.234Z,99.99
2018-09-05T06:10:07.270Z,99.99
2018-09-05T06:11:07.207Z,99.99
2018-09-05T06:12:07.252Z,99.99
2018-09-05T06:13:07.191Z,99.99
2018-09-05T06:14:07.186Z,99.99
2018-09-05T06:15:07.188Z,99.99
2018-09-05T06:16:07.157Z,99.99
2018-09-05T06:17:07.151Z,99.99
2018-09-05T06:18:07.141Z,99.99
2018-09-05T06:19:07.124Z,99.99
2018-09-05T06:20:07.134Z,99.99
2018-09-05T06:21:07.150Z,99.99
2018-09-05T06:22:07.105Z,99.99
2018-09-05T06:23:07.106Z,99.99
2018-09-05T06:24:07.121Z,99.99
2018-09-05T06:25:07.075Z,99.99
2018-09-05T06:26:07.045Z,99.99
2018-09-05T06:27:07.043Z,99.99
2018-09-05T06:28:07.157Z,99.99
2018-09-05T06:29:07.160Z,99.99
2018-09-05T06:30:07.029Z,99.99
2018-09-05T06:31:07.220Z,99.99
2018-09-05T06:32:06.981Z,99.99
2018-09-05T06:33:06.970Z,99.99
2018-09-05T06:34:07.008Z,99.99
2018-09-05T06:35:06.978Z,99.99
2018-09-05T06:36:06.939Z,99.99
2018-09-05T06:37:06.927Z,98.71
2018-09-05T06:38:06.921Z,98.61
2018-09-05T06:39:06.988Z,98.11
2018-09-05T06:40:06.898Z,97.45
2018-09-05T06:41:06.905Z,96.34
2018-09-05T06:42:06.886Z,96.25
2018-09-05T06:43:06.860Z,95.90
2018-09-05T06:44:06.852Z,95.29
2018-09-05T06:45:06.958Z,95.29
2018-09-05T06:46:06.845Z,95.49
2018-09-05T06:47:06.831Z,95.35
2018-09-05T06:48:06.811Z,95.14
2018-09-05T06:49:06.833Z,94.34
2018-09-05T06:50:06.825Z,94.84
2018-09-05T06:51:06.830Z,94.80
2018-09-05T06:52:06.765Z,95.61
2018-09-05T06:53:06.758Z,94.59
2018-09-05T06:54:06.754Z,94.39
2018-09-05T06:55:06.754Z,93.79
2018-09-05T06:56:06.744Z,93.59
2018-09-05T06:57:06.712Z,93.69
2018-09-05T06:58:06.705Z,93.24
2018-09-05T06:59:06.697Z,93.34
2018-09-05T07:00:06.683Z,94.45
2018-09-05T07:01:06.690Z,94.25
2018-09-05T07:02:06.796Z,94.05
2018-09-05T07:03:06.645Z,93.44
2018-09-05T07:04:06.640Z,92.54
2018-09-05T07:05:06.650Z,91.78
2018-09-05T07:06:06.634Z,91.22
2018-09-05T07:07:06.708Z,91.18
2018-09-05T07:08:06.600Z,90.98
2018-09-05T07:09:06.614Z,91.28
2018-09-05T07:10:06.664Z,91.18
2018-09-05T07:11:06.625Z,90.23
2018-09-05T07:12:06.551Z,91.34
2018-09-05T07:13:06.542Z,92.65
2018-09-05T07:14:06.590Z,91.34
2018-09-05T07:15:06.519Z,90.64
2018-09-05T07:16:06.725Z,88.92
2018-09-05T07:17:06.497Z,89.79
2018-09-05T07:18:06.489Z,90.89
2018-09-05T07:19:06.479Z,90.89
2018-09-05T07:20:06.463Z,90.15
2018-09-05T07:21:06.470Z,89.04
2018-09-05T07:22:06.569Z,89.70
2018-09-05T07:23:06.427Z,88.90
2018-09-05T07:24:06.414Z,88.70
2018-09-05T07:25:06.508Z,88.90
2018-09-05T07:26:06.418Z,88.15
2018-09-05T07:27:06.382Z,87.85
2018-09-05T07:28:06.376Z,86.65
2018-09-05T07:29:06.362Z,87.95
2018-09-05T07:30:06.347Z,88.35
2018-09-05T07:31:06.382Z,86.24
2018-09-05T07:32:06.332Z,86.14
2018-09-05T07:33:06.317Z,84.80
2018-09-05T07:34:06.310Z,86.20
2018-09-05T07:35:06.295Z,87.01
2018-09-05T07:36:06.302Z,87.30
2018-09-05T07:37:06.273Z,87.81
2018-09-05T07:38:06.267Z,86.60
2018-09-05T07:39:06.258Z,86.90
2018-09-05T07:40:06.244Z,86.80
2018-09-05T07:41:06.312Z,83.15
2018-09-05T07:42:06.249Z,84.45
2018-09-05T07:43:06.211Z,86.46
2018-09-05T07:44:06.198Z,86.52
2018-09-05T07:45:06.187Z,83.91
2018-09-05T07:46:06.204Z,86.12
2018-09-05T07:47:06.161Z,86.52
2018-09-05T07:48:06.153Z,84.77
2018-09-05T07:49:06.143Z,83.67
2018-09-05T07:50:06.136Z,85.27
2018-09-05T07:51:06.226Z,83.87
2018-09-05T07:52:06.205Z,83.37
2018-09-05T07:53:06.142Z,83.37
2018-09-05T07:54:06.094Z,82.76
2018-09-05T07:55:06.075Z,84.97
2018-09-05T07:56:06.094Z,84.88
2018-09-05T07:57:06.069Z,84.88
2018-09-05T07:58:06.050Z,84.07
2018-09-05T07:59:06.032Z,84.97
2018-09-05T08:00:06.024Z,85.78
2018-09-05T08:01:06.017Z,84.97
2018-09-05T08:02:06.002Z,84.93
2018-09-05T08:03:05.996Z,86.24
2018-09-05T08:04:05.983Z,84.93
2018-09-05T08:05:05.975Z,84.63
2018-09-05T08:06:05.965Z,85.03
2018-09-05T08:07:05.967Z,81.82
2018-09-05T08:08:05.940Z,83.63
2018-09-05T08:09:05.928Z,82.32
2018-09-05T08:10:05.934Z,78.88
2018-09-05T08:11:05.912Z,81.68
2018-09-05T08:12:05.921Z,81.59
2018-09-05T08:13:05.910Z,82.55
2018-09-05T08:14:05.871Z,83.25
2018-09-05T08:15:05.867Z,82.45
2018-09-05T08:16:05.857Z,81.24
2018-09-05T08:17:05.865Z,78.44
2018-09-05T08:18:05.889Z,79.14
2018-09-05T08:19:05.818Z,79.71
2018-09-05T08:20:05.812Z,79.60
2018-09-05T08:21:05.799Z,79.30
2018-09-05T08:22:05.802Z,79.17
2018-09-05T08:23:05.781Z,78.36
2018-09-05T08:24:05.842Z,78.53
2018-09-05T08:25:05.766Z,77.93
2018-09-05T08:26:05.766Z,78.29
2018-09-05T08:27:05.749Z,76.29
2018-09-05T08:28:05.755Z,76.59
2018-09-05T08:29:05.779Z,76.19
2018-09-05T08:30:05.762Z,78.19
2018-09-05T08:31:05.688Z,73.79
2018-09-05T08:32:05.698Z,74.76
2018-09-05T08:33:05.671Z,73.56
2018-09-05T08:34:05.684Z,77.25
2018-09-05T08:35:05.895Z,76.92
2018-09-05T08:36:05.954Z,76.22
2018-09-05T08:37:05.882Z,73.25
2018-09-05T08:38:05.706Z,73.32
2018-09-05T08:39:05.612Z,74.92
2018-09-05T08:40:05.599Z,74.92
2018-09-05T08:41:05.647Z,71.62
2018-09-05T08:42:05.678Z,74.52
2018-09-05T08:43:05.563Z,75.38
2018-09-05T08:44:05.700Z,71.59
2018-09-05T08:45:05.786Z,74.38
2018-09-05T08:46:05.749Z,72.49
2018-09-05T08:47:05.536Z,74.55
2018-09-05T08:48:05.548Z,73.65
2018-09-05T08:49:05.521Z,74.95
2018-09-05T08:50:05.505Z,75.35
2018-09-05T08:51:05.481Z,71.52
2018-09-05T08:52:05.485Z,71.42
2018-09-05T08:53:05.456Z,72.12
2018-09-05T08:54:05.448Z,69.13
2018-09-05T08:55:05.489Z,67.83
2018-09-05T08:56:05.421Z,72.38
2018-09-05T08:57:05.437Z,70.49
2018-09-05T08:58:05.403Z,70.99
2018-09-05T08:59:05.396Z,71.15
2018-09-05T09:00:05.380Z,68.90
2018-09-05T09:01:05.367Z,68.40
2018-09-05T09:02:05.379Z,69.09
2018-09-05T09:03:05.392Z,70.06
2018-09-05T09:04:05.343Z,68.46
2018-09-05T09:05:05.372Z,70.36
2018-09-05T09:06:05.337Z,68.37
2018-09-05T09:07:05.299Z,69.36
2018-09-05T09:08:05.295Z,66.77
2018-09-05T09:09:05.283Z,67.66
2018-09-05T09:10:05.268Z,67.54
2018-09-05T09:11:05.265Z,66.87
2018-09-05T09:12:05.256Z,67.93
2018-09-05T09:13:05.263Z,64.94
2018-09-05T09:14:05.233Z,66.94
2018-09-05T09:15:05.216Z,68.43
2018-09-05T09:16:05.236Z,66.74
2018-09-05T09:17:05.245Z,70.49
2018-09-05T09:18:05.236Z,69.89
2018-09-05T09:19:05.173Z,67.47
2018-09-05T09:20:05.166Z,68.16
2018-09-05T09:21:05.154Z,70.45
2018-09-05T09:22:05.143Z,67.14
2018-09-05T09:23:05.157Z,65.18
2018-09-05T09:24:05.128Z,64.78
2018-09-05T09:25:05.113Z,63.59
2018-09-05T09:26:05.106Z,68.93
2018-09-05T09:27:05.089Z,66.17
2018-09-05T09:28:05.254Z,67.74
2018-09-05T09:29:05.069Z,62.99
2018-09-05T09:30:05.055Z,67.24
2018-09-05T09:31:05.051Z,65.18
2018-09-05T09:32:05.039Z,66.47
2018-09-05T09:33:05.044Z,68.13
2018-09-05T09:34:05.013Z,66.24
2018-09-05T09:35:05.019Z,67.04
2018-09-05T09:36:05.015Z,67.74
2018-09-05T09:37:05.006Z,67.74
2018-09-05T09:38:04.994Z,66.94
2018-09-05T09:39:04.960Z,64.85
2018-09-05T09:40:04.952Z,65.45
2018-09-05T09:41:04.941Z,62.46
2018-09-05T09:42:04.928Z,63.53
2018-09-05T09:43:04.942Z,63.82
2018-09-05T09:44:04.913Z,63.73
2018-09-05T09:45:04.900Z,64.12
2018-09-05T09:46:04.893Z,65.52
2018-09-05T09:47:04.882Z,61.44
2018-09-05T09:48:04.886Z,62.13
2018-09-05T09:49:04.860Z,64.98
2018-09-05T09:50:04.852Z,64.79
2018-09-05T09:51:04.843Z,63.00
2018-09-05T09:52:04.831Z,63.76
2018-09-05T09:53:04.834Z,64.56
2018-09-05T09:54:04.804Z,61.38
2018-09-05T09:55:04.802Z,63.76
2018-09-05T09:56:04.788Z,63.07
2018-09-05T09:57:04.777Z,61.58
2018-09-05T09:58:04.813Z,59.66
2018-09-05T09:59:04.754Z,62.27
2018-09-05T10:00:04.743Z,62.15
2018-09-05T10:01:04.731Z,63.54
2018-09-05T10:02:04.720Z,60.85
2018-09-05T10:03:04.741Z,59.27
2018-09-05T10:04:04.777Z,58.40
2018-09-05T10:05:04.692Z,57.81
2018-09-05T10:06:04.676Z,62.74
2018-09-05T10:07:04.724Z,58.17
2018-09-05T10:08:04.658Z,61.75
2018-09-05T10:09:04.652Z,59.17
2018-09-05T10:10:04.878Z,60.85
2018-09-05T10:11:04.620Z,63.01
2018-09-05T10:12:04.612Z,63.90
2018-09-05T10:13:04.601Z,62.02
2018-09-05T10:14:04.613Z,58.42
2018-09-05T10:15:04.592Z,61.22
2018-09-05T10:16:04.574Z,57.75
2018-09-05T10:17:04.568Z,58.74
2018-09-05T10:18:04.559Z,59.23
2018-09-05T10:19:04.555Z,62.08
2018-09-05T10:20:04.532Z,63.28
2018-09-05T10:21:04.574Z,58.42
2018-09-05T10:22:04.508Z,58.32
2018-09-05T10:23:04.491Z,57.82
2018-09-05T10:24:04.481Z,57.92
2018-09-05T10:25:04.492Z,59.91
2018-09-05T10:26:04.457Z,61.49
2018-09-05T10:27:04.454Z,58.61
2018-09-05T10:28:04.440Z,58.51
2018-09-05T10:29:04.429Z,57.69
2018-09-05T10:30:04.439Z,58.09
2018-09-05T10:31:04.408Z,57.86
2018-09-05T10:32:04.405Z,60.96
2018-09-05T10:33:04.385Z,55.09
2018-09-05T10:34:04.372Z,57.54
2018-09-05T10:35:04.389Z,57.04
2018-09-05T10:36:04.356Z,55.13
2018-09-05T10:37:04.350Z,58.90
2018-09-05T10:38:04.364Z,55.13
2018-09-05T10:39:04.363Z,55.24
2018-09-05T10:40:04.361Z,54.94
2018-09-05T10:41:04.337Z,53.18
2018-09-05T10:42:04.327Z,53.08
2018-09-05T10:43:04.322Z,56.55
2018-09-05T10:44:04.290Z,53.95
2018-09-05T10:45:04.308Z,56.85
2018-09-05T10:46:04.299Z,55.04
2018-09-05T10:47:04.280Z,58.70
2018-09-05T10:48:04.261Z,56.62
2018-09-05T10:49:04.272Z,55.13
2018-09-05T10:50:04.264Z,57.31
2018-09-05T10:51:04.257Z,54.74
2018-09-05T10:52:04.235Z,53.48
2018-09-05T10:53:04.224Z,57.04
2018-09-05T10:54:04.227Z,55.06
2018-09-05T10:55:04.184Z,55.85
2018-09-05T10:56:04.249Z,56.95
2018-09-05T10:57:04.190Z,54.96
2018-09-05T10:58:04.222Z,59.49
2018-09-05T10:59:04.171Z,54.07
2018-09-05T11:00:04.183Z,56.42
2018-09-05T11:01:04.207Z,54.44
2018-09-05T11:02:04.166Z,53.85
2018-09-05T11:03:04.154Z,57.41
2018-09-05T11:04:04.190Z,55.70
2018-09-05T11:05:04.094Z,53.92
2018-09-05T11:06:04.163Z,55.28
2018-09-05T11:07:04.083Z,57.56
2018-09-05T11:08:04.075Z,54.19
2018-09-05T11:09:04.063Z,52.39
2018-09-05T11:10:04.057Z,55.05
2018-09-05T11:11:04.072Z,53.18
2018-09-05T11:12:04.034Z,53.47
2018-09-05T11:13:04.033Z,50.48
2018-09-05T11:14:03.979Z,49.60
2018-09-05T11:15:03.958Z,49.30
2018-09-05T11:16:03.973Z,51.94
2018-09-05T11:17:03.952Z,51.87
2018-09-05T11:18:03.916Z,49.32
2018-09-05T11:19:03.934Z,50.19
2018-09-05T11:20:03.897Z,56.61
2018-09-05T11:21:03.910Z,53.08
2018-09-05T11:22:03.882Z,53.87
2018-09-05T11:23:03.863Z,54.27
2018-09-05T11:24:03.854Z,54.63
2018-09-05T11:25:03.848Z,51.00
2018-09-05T11:26:03.839Z,53.05
2018-09-05T11:27:03.830Z,57.50
2018-09-05T11:28:03.813Z,57.57
2018-09-05T11:29:03.877Z,49.08
2018-09-05T11:30:03.790Z,51.35
2018-09-05T11:31:03.795Z,51.64
2018-09-05T11:32:03.796Z,53.20
2018-09-05T11:33:03.777Z,52.01
2018-09-05T11:34:03.770Z,52.41
2018-09-05T11:35:03.740Z,51.59
2018-09-05T11:36:03.730Z,48.91
2018-09-05T11:37:03.818Z,53.25
2018-09-05T11:38:03.740Z,49.60
2018-09-05T11:39:03.707Z,51.67
2018-09-05T11:40:03.709Z,50.85
2018-09-05T11:41:03.693Z,50.93
2018-09-05T11:42:03.690Z,51.79
2018-09-05T11:43:03.684Z,47.46
2018-09-05T11:44:03.650Z,50.81
2018-09-05T11:45:03.650Z,46.97
2018-09-05T11:46:03.635Z,48.61
2018-09-05T11:47:03.632Z,46.41
2018-09-05T11:48:03.608Z,47.98
2018-09-05T11:49:03.615Z,45.89
2018-09-05T11:50:03.585Z,47.36
2018-09-05T11:51:03.584Z,43.24
2018-09-05T11:52:03.584Z,44.32
2018-09-05T11:53:03.565Z,43.90
2018-09-05T11:54:03.548Z,43.29
2018-09-05T11:55:03.543Z,42.80
2018-09-05T11:56:03.533Z,47.20
2018-09-05T11:57:03.548Z,43.18
2018-09-05T11:58:03.511Z,43.15
2018-09-05T11:59:03.531Z,41.02
2018-09-05T12:00:03.497Z,43.59
2018-09-05T12:01:03.469Z,43.69
2018-09-05T12:02:03.474Z,46.12
2018-09-05T12:03:03.453Z,44.45
2018-09-05T12:04:03.441Z,42.29
2018-09-05T12:05:03.505Z,43.19
2018-09-05T12:06:03.454Z,44.10
2018-09-05T12:07:03.421Z,41.63
2018-09-05T12:08:03.397Z,42.80
2018-09-05T12:09:03.391Z,43.79
2018-09-05T12:10:03.384Z,43.37
2018-09-05T12:11:03.376Z,45.00
2018-09-05T12:12:03.404Z,42.82
2018-09-05T12:13:03.354Z,39.41
2018-09-05T12:14:03.331Z,42.52
2018-09-05T12:15:03.328Z,39.29
2018-09-05T12:16:03.324Z,42.23
2018-09-05T12:17:03.320Z,40.66
2018-09-05T12:18:03.295Z,41.37
2018-09-05T12:19:03.288Z,39.03
2018-09-05T12:20:03.283Z,40.11
2018-09-05T12:21:03.262Z,39.22
2018-09-05T12:22:03.277Z,42.62
2018-09-05T12:23:03.249Z,38.10
2018-09-05T12:24:03.235Z,41.58
2018-09-05T12:25:03.222Z,37.87
2018-09-05T12:26:03.243Z,42.35
2018-09-05T12:27:03.211Z,41.64
2018-09-05T12:28:03.185Z,38.53
2018-09-05T12:29:03.196Z,38.53
2018-09-05T12:30:03.173Z,39.98
2018-09-05T12:31:03.152Z,39.69
2018-09-05T12:32:03.180Z,36.94
2018-09-05T12:33:03.146Z,38.71
2018-09-05T12:34:03.124Z,41.76
2018-09-05T12:35:03.119Z,39.80
2018-09-05T12:36:03.107Z,42.07
2018-09-05T12:37:03.114Z,38.96
2018-09-05T12:38:03.104Z,42.19
2018-09-05T12:39:03.071Z,38.33
2018-09-05T12:40:03.063Z,39.84
2018-09-05T12:41:03.053Z,42.80
2018-09-05T12:42:03.041Z,43.12
2018-09-05T12:43:03.055Z,42.65
2018-09-05T12:44:03.026Z,44.71
2018-09-05T12:45:03.012Z,43.43
2018-09-05T12:46:03.024Z,46.26
2018-09-05T12:47:02.996Z,42.32
2018-09-05T12:48:03.005Z,40.25
2018-09-05T12:49:02.983Z,42.71
2018-09-05T12:50:02.966Z,42.00
2018-09-05T12:51:02.949Z,41.19
2018-09-05T12:52:02.943Z,42.45